Time;durP1;ratioP1;P1;durP2;ratioP2;P2;SDS_P1;SDS_P2;PMS_P1;PMS_P2;Temp;Humidity;BMP_temperature;BMP_pressure;BME280_temperature;BME280_humidity;BME280_pressure;Samples;Min_cycle;Max_cycle;Signal;HPM_P1;HPM_P2
2021/04/11 00:02:02;;;;;;;5.60;2.70;;;3.80;99.90;;;;;;5003440;28;20277;-77
2021/04/11 00:04:29;;;;;;;9.03;2.60;;;3.80;99.90;;;;;;5003358;28;20207;-80
2021/04/11 00:06:55;;;;;;;5.10;2.90;;;3.80;99.90;;;;;;5001857;28;20508;-80
2021/04/11 00:09:21;;;;;;;7.37;3.77;;;3.80;99.90;;;;;;4984618;28;20204;-80
2021/04/11 00:11:47;;;;;;;7.47;2.60;;;3.80;99.90;;;;;;4984066;28;20485;-79
2021/04/11 00:14:15;;;;;;;8.47;2.70;;;3.80;99.90;;;;;;4984150;28;20945;-78
2021/04/11 00:16:41;;;;;;;6.33;2.97;;;3.80;99.90;;;;;;4984479;28;20240;-80
2021/04/11 00:19:07;;;;;;;6.57;2.70;;;3.80;99.90;;;;;;5004208;28;20211;-80
2021/04/11 00:21:33;;;;;;;7.07;2.30;;;3.90;99.90;;;;;;5003408;28;20227;-75
2021/04/11 00:24:00;;;;;;;6.33;2.40;;;3.90;99.90;;;;;;4995395;28;20215;-76
2021/04/11 00:26:26;;;;;;;7.87;2.60;;;3.90;99.90;;;;;;4988800;28;20499;-77
2021/04/11 00:28:52;;;;;;;6.73;2.53;;;3.90;99.90;;;;;;5002541;28;20191;-77
2021/04/11 00:31:19;;;;;;;6.47;2.30;;;3.90;99.90;;;;;;5000706;28;20667;-75
2021/04/11 00:33:45;;;;;;;6.37;2.13;;;3.90;99.90;;;;;;5001827;28;20203;-75
2021/04/11 00:36:14;;;;;;;7.80;3.13;;;3.90;99.90;;;;;;5001541;28;20657;-77
2021/04/11 00:38:41;;;;;;;7.90;2.43;;;3.80;99.90;;;;;;4983933;28;20658;-79
2021/04/11 00:41:14;;;;;;;4.90;2.50;;;3.80;99.90;;;;;;4983468;28;20220;-78
2021/04/11 00:43:41;;;;;;;5.87;2.20;;;3.90;99.90;;;;;;4983235;28;20239;-80
2021/04/11 00:46:16;;;;;;;4.53;2.00;;;3.90;99.90;;;;;;4983846;28;20204;-77
2021/04/11 00:48:44;;;;;;;6.70;1.77;;;3.90;99.90;;;;;;4984172;28;20191;-79
2021/04/11 00:51:13;;;;;;;9.23;2.60;;;3.90;99.90;;;;;;4983601;28;20208;-76
2021/04/11 00:53:39;;;;;;;7.40;2.90;;;3.90;99.90;;;;;;4988882;28;20222;-77
2021/04/11 00:56:08;;;;;;;4.77;2.10;;;3.80;99.90;;;;;;5002498;28;20234;-76
2021/04/11 00:58:35;;;;;;;3.97;2.83;;;3.80;99.90;;;;;;5001434;28;20381;-79
2021/04/11 01:01:02;;;;;;;6.33;2.80;;;3.80;99.90;;;;;;5002018;28;20227;-78
2021/04/11 01:03:32;;;;;;;3.80;2.00;;;3.80;99.90;;;;;;5002241;28;20554;-75
2021/04/11 01:06:01;;;;;;;5.83;2.00;;;3.80;99.90;;;;;;5001089;28;20888;-79
2021/04/11 01:08:30;;;;;;;6.23;1.70;;;3.80;99.90;;;;;;5002487;28;20207;-79
2021/04/11 01:11:02;;;;;;;4.77;2.10;;;3.80;99.90;;;;;;4990486;28;20199;-76
2021/04/11 01:13:29;;;;;;;4.90;2.10;;;3.80;99.90;;;;;;4982083;28;20543;-76
2021/04/11 01:15:56;;;;;;;6.20;1.90;;;3.70;99.90;;;;;;4982381;28;20244;-76
2021/04/11 01:18:23;;;;;;;3.57;1.60;;;3.70;99.90;;;;;;5002562;28;20622;-78
2021/04/11 01:20:50;;;;;;;3.77;1.83;;;3.80;99.90;;;;;;5002059;28;20226;-77
2021/04/11 01:23:30;;;;;;;8.63;2.23;;;3.80;99.90;;;;;;5001980;28;20630;-79
2021/04/11 01:26:00;;;;;;;5.30;1.47;;;3.80;99.90;;;;;;5001458;28;20215;-76
2021/04/11 01:28:30;;;;;;;5.63;1.70;;;3.80;99.90;;;;;;5001732;28;20258;-77
2021/04/11 01:30:57;;;;;;;7.40;1.53;;;3.80;99.90;;;;;;4992426;28;20216;-76
2021/04/11 01:33:28;;;;;;;4.67;1.47;;;3.80;99.90;;;;;;4982356;28;20218;-77
2021/04/11 01:35:57;;;;;;;2.83;1.67;;;3.80;99.90;;;;;;4982195;28;20676;-78
2021/04/11 01:38:25;;;;;;;3.87;1.53;;;3.80;99.90;;;;;;4991449;28;20204;-76
2021/04/11 01:40:56;;;;;;;3.50;1.23;;;3.80;99.90;;;;;;4981235;28;20223;-75
2021/04/11 01:43:24;;;;;;;4.50;1.17;;;3.80;99.90;;;;;;4982462;28;20219;-76
2021/04/11 01:45:51;;;;;;;4.30;1.40;;;3.80;99.90;;;;;;4992557;28;20207;-76
2021/04/11 01:48:19;;;;;;;3.83;1.70;;;3.90;99.90;;;;;;5000763;28;20202;-77
2021/04/11 01:50:47;;;;;;;3.87;1.30;;;3.80;99.90;;;;;;5000677;28;20261;-77
2021/04/11 01:53:16;;;;;;;4.27;1.30;;;3.80;99.90;;;;;;4982090;28;20215;-77
2021/04/11 01:55:42;;;;;;;2.80;1.30;;;3.90;99.90;;;;;;4981617;28;20212;-77
2021/04/11 01:58:11;;;;;;;5.27;2.30;;;3.80;99.90;;;;;;4999555;28;20238;-78
2021/04/11 02:00:41;;;;;;;3.00;1.20;;;3.80;99.90;;;;;;5001789;28;20206;-77
2021/04/11 02:03:12;;;;;;;3.17;1.10;;;3.90;99.90;;;;;;5000100;28;20195;-76
2021/04/11 02:05:40;;;;;;;3.37;1.50;;;3.90;99.90;;;;;;4982401;28;20266;-79
2021/04/11 02:08:09;;;;;;;2.87;1.57;;;3.90;99.90;;;;;;4990023;28;20204;-75
2021/04/11 02:10:40;;;;;;;6.13;1.57;;;3.80;99.90;;;;;;4988306;28;20387;-78
2021/04/11 02:13:08;;;;;;;2.93;1.57;;;3.90;99.90;;;;;;5002130;28;20196;-77
2021/04/11 02:15:39;;;;;;;2.37;1.70;;;3.80;99.90;;;;;;5001652;28;20285;-78
2021/04/11 02:18:07;;;;;;;6.40;1.80;;;3.80;99.90;;;;;;5001867;28;20211;-78
2021/04/11 02:20:34;;;;;;;2.93;1.40;;;3.80;99.90;;;;;;5000841;28;20270;-77
2021/04/11 02:23:01;;;;;;;2.27;1.30;;;3.80;99.90;;;;;;5001374;28;20899;-76
2021/04/11 02:25:31;;;;;;;5.50;1.40;;;3.80;99.90;;;;;;5001604;28;20257;-80
2021/04/11 02:27:59;;;;;;;11.33;1.60;;;3.80;99.90;;;;;;5001788;28;20203;-77
2021/04/11 02:30:27;;;;;;;3.10;1.30;;;3.80;99.90;;;;;;5001319;28;20211;-77
2021/04/11 02:32:56;;;;;;;3.10;1.20;;;3.80;99.90;;;;;;5001688;28;20204;-79
2021/04/11 02:35:27;;;;;;;4.97;1.17;;;3.80;99.90;;;;;;5001400;28;20222;-79
2021/04/11 02:37:57;;;;;;;4.67;1.33;;;3.80;99.90;;;;;;5004662;28;20222;-77
2021/04/11 02:40:27;;;;;;;3.97;1.30;;;3.80;99.90;;;;;;5004877;28;20516;-76
2021/04/11 02:42:57;;;;;;;4.87;1.17;;;3.80;99.90;;;;;;5004023;28;20285;-79
2021/04/11 02:45:27;;;;;;;2.60;1.13;;;3.80;99.90;;;;;;5004284;28;20214;-80
2021/04/11 02:47:54;;;;;;;4.60;1.63;;;3.70;99.90;;;;;;5005363;28;20211;-77
2021/04/11 02:50:22;;;;;;;6.27;2.70;;;3.70;99.90;;;;;;5004258;28;20204;-76
2021/04/11 02:52:54;;;;;;;7.37;1.30;;;3.80;99.90;;;;;;5004025;28;20207;-76
2021/04/11 02:55:20;;;;;;;5.40;1.30;;;3.80;99.90;;;;;;5004701;28;20195;-80
2021/04/11 02:57:47;;;;;;;2.87;1.20;;;3.80;99.90;;;;;;5003786;28;20203;-77
2021/04/11 03:00:19;;;;;;;8.33;1.10;;;3.80;99.90;;;;;;5004598;28;20214;-77
2021/04/11 03:02:46;;;;;;;3.20;1.03;;;3.80;99.90;;;;;;5004475;28;20309;-78
2021/04/11 03:05:16;;;;;;;4.80;1.70;;;3.80;99.90;;;;;;4985442;28;20201;-79
2021/04/11 03:07:45;;;;;;;5.83;1.67;;;3.80;99.90;;;;;;4992231;28;20203;-76
2021/04/11 03:10:18;;;;;;;3.33;1.00;;;3.70;99.90;;;;;;5004456;28;20800;-78
2021/04/11 03:12:45;;;;;;;2.57;1.10;;;3.70;99.90;;;;;;4984762;28;20204;-78
2021/04/11 03:15:13;;;;;;;3.93;1.00;;;3.80;99.90;;;;;;4985072;28;20602;-80
2021/04/11 03:17:41;;;;;;;4.43;1.13;;;3.70;99.90;;;;;;4985806;28;20247;-77
2021/04/11 03:20:12;;;;;;;3.40;1.40;;;3.80;99.90;;;;;;4985537;28;20234;-79
2021/04/11 03:22:39;;;;;;;4.33;1.20;;;3.80;99.90;;;;;;4993865;28;20226;-79
2021/04/11 03:25:07;;;;;;;3.77;1.27;;;3.80;99.90;;;;;;5010218;28;20604;-79
2021/04/11 03:27:37;;;;;;;3.23;1.23;;;3.80;99.90;;;;;;5007570;28;20196;-76
2021/04/11 03:30:08;;;;;;;5.23;1.80;;;3.80;99.90;;;;;;5007876;28;20207;-77
2021/04/11 03:32:40;;;;;;;2.37;1.27;;;3.80;99.90;;;;;;5003815;28;20223;-79
2021/04/11 03:35:09;;;;;;;2.90;1.00;;;3.80;99.90;;;;;;5003796;28;20210;-79
2021/04/11 03:37:37;;;;;;;6.67;1.10;;;3.80;99.90;;;;;;5004064;28;20207;-78
2021/04/11 03:40:05;;;;;;;5.47;1.30;;;3.80;99.90;;;;;;5004062;28;21007;-78
2021/04/11 03:42:39;;;;;;;2.87;1.20;;;3.80;99.90;;;;;;5003893;28;20238;-80
2021/04/11 03:45:06;;;;;;;2.57;1.07;;;3.80;99.90;;;;;;5004230;28;20249;-80
2021/04/11 03:47:40;;;;;;;3.67;1.10;;;3.80;99.90;;;;;;5003325;28;20222;-80
2021/04/11 03:50:11;;;;;;;5.50;1.27;;;3.80;99.90;;;;;;5004232;28;20725;-79
2021/04/11 03:52:40;;;;;;;3.90;1.17;;;3.80;99.90;;;;;;5004027;28;20501;-78
2021/04/11 03:55:11;;;;;;;2.70;1.40;;;3.70;99.90;;;;;;4998147;28;20208;-78
2021/04/11 03:57:48;;;;;;;5.23;1.30;;;3.70;99.90;;;;;;4985124;28;20204;-80
2021/04/11 04:00:18;;;;;;;2.73;1.30;;;3.70;99.90;;;;;;4984003;28;20211;-79
2021/04/11 04:02:46;;;;;;;5.43;1.20;;;3.70;99.90;;;;;;4987167;28;20219;-80
2021/04/11 04:05:17;;;;;;;4.37;1.57;;;3.70;99.90;;;;;;5004624;28;20210;-77
2021/04/11 04:07:48;;;;;;;5.67;1.23;;;3.70;99.90;;;;;;5003511;28;20270;-80
2021/04/11 04:10:16;;;;;;;5.50;1.30;;;3.70;99.90;;;;;;4984994;28;20204;-76
2021/04/11 04:13:10;;;;;;;3.07;1.43;;;3.70;99.90;;;;;;4984491;28;20215;-81
2021/04/11 04:15:45;;;;;;;5.47;1.20;;;3.60;99.90;;;;;;4998553;28;20250;-78
2021/04/11 04:18:35;;;;;;;3.47;1.10;;;3.60;99.90;;;;;;5000717;28;20207;-79
2021/04/11 04:21:15;;;;;;;7.00;1.50;;;3.70;99.90;;;;;;4984420;28;20240;-78
2021/04/11 04:23:50;;;;;;;5.27;1.37;;;3.70;99.90;;;;;;4983875;28;20230;-77
2021/04/11 04:26:36;;;;;;;4.50;1.37;;;3.70;99.90;;;;;;4983197;28;20218;-80
2021/04/11 04:29:19;;;;;;;3.27;1.20;;;3.70;99.90;;;;;;4983711;28;20268;-79
2021/04/11 04:32:22;;;;;;;5.43;1.20;;;3.60;99.90;;;;;;4982479;28;20200;-77
2021/04/11 04:34:59;;;;;;;2.53;0.97;;;3.70;99.90;;;;;;4983185;28;20580;-79
2021/04/11 04:37:32;;;;;;;4.67;1.93;;;3.70;99.90;;;;;;4982120;28;20219;-79
2021/04/11 04:40:04;;;;;;;3.70;1.23;;;3.70;99.90;;;;;;4983350;28;20195;-80
2021/04/11 04:42:37;;;;;;;5.20;1.20;;;3.70;99.90;;;;;;4985879;28;20242;-80
2021/04/11 04:45:13;;;;;;;7.23;1.00;;;3.60;99.90;;;;;;5002834;28;20894;-76
2021/04/11 04:47:45;;;;;;;2.77;1.17;;;3.70;99.90;;;;;;5002530;28;20380;-76
2021/04/11 04:50:18;;;;;;;4.47;0.97;;;3.70;99.90;;;;;;5002747;28;20210;-78
2021/04/11 04:52:49;;;;;;;3.93;1.00;;;3.70;99.90;;;;;;5002351;28;20202;-78
2021/04/11 04:55:21;;;;;;;3.60;1.30;;;3.70;99.90;;;;;;5002660;28;20203;-81
2021/04/11 04:57:51;;;;;;;6.37;1.23;;;3.70;99.90;;;;;;5001553;28;20210;-78
2021/04/11 05:00:22;;;;;;;3.57;0.97;;;3.70;99.90;;;;;;5002171;28;20199;-80
2021/04/11 05:02:55;;;;;;;3.07;1.60;;;3.70;99.90;;;;;;5002139;28;20243;-79
2021/04/11 05:05:24;;;;;;;6.20;1.50;;;3.70;99.90;;;;;;5002088;28;20572;-79
2021/04/11 05:07:58;;;;;;;8.47;1.23;;;3.70;99.90;;;;;;5002279;28;20207;-79
2021/04/11 05:10:28;;;;;;;2.13;1.03;;;3.70;99.90;;;;;;5001767;28;20206;-80
2021/04/11 05:13:00;;;;;;;2.97;1.30;;;3.70;99.90;;;;;;5001843;28;20199;-80
2021/04/11 05:15:32;;;;;;;2.00;1.20;;;3.70;99.90;;;;;;5002126;28;20293;-79
2021/04/11 05:18:05;;;;;;;3.63;0.80;;;3.70;99.90;;;;;;5003746;28;20206;-79
2021/04/11 05:20:35;;;;;;;4.60;1.20;;;3.80;99.90;;;;;;4999470;28;20234;-80
2021/04/11 05:23:13;;;;;;;3.77;2.73;;;3.70;99.90;;;;;;4993104;28;20934;-80
2021/04/11 05:25:44;;;;;;;2.93;1.27;;;3.70;99.90;;;;;;5002812;28;20203;-80
2021/04/11 05:28:14;;;;;;;2.67;1.43;;;3.70;99.90;;;;;;5002824;28;20300;-80
2021/04/11 05:30:45;;;;;;;5.57;1.33;;;3.70;99.90;;;;;;5003017;28;20199;-79
2021/04/11 05:33:16;;;;;;;5.13;2.53;;;3.70;99.90;;;;;;5002579;28;20195;-80
2021/04/11 05:35:43;;;;;;;7.03;1.50;;;3.80;99.90;;;;;;5001780;28;20215;-80
2021/04/11 05:38:18;;;;;;;2.80;1.90;;;3.70;99.90;;;;;;5002173;28;20203;-76
2021/04/11 05:40:48;;;;;;;5.43;1.10;;;3.80;99.90;;;;;;5001844;28;20555;-78
2021/04/11 05:43:31;;;;;;;4.30;1.63;;;3.80;99.90;;;;;;5002041;28;20273;-81
2021/04/11 05:46:10;;;;;;;3.97;1.40;;;3.80;99.90;;;;;;5002352;28;20227;-80
2021/04/11 05:48:43;;;;;;;8.97;2.60;;;3.90;99.90;;;;;;5001794;28;20192;-76
2021/04/11 05:51:14;;;;;;;3.03;1.20;;;3.90;99.90;;;;;;5002475;28;20195;-80
2021/04/11 05:53:45;;;;;;;3.20;1.00;;;4.00;99.90;;;;;;5001848;28;20622;-76
2021/04/11 05:56:16;;;;;;;2.83;1.00;;;4.00;99.90;;;;;;4982613;28;20207;-77
2021/04/11 05:58:47;;;;;;;5.30;1.57;;;4.10;99.90;;;;;;4982590;28;20196;-77
2021/04/11 06:01:18;;;;;;;7.27;1.40;;;4.10;99.90;;;;;;4982015;28;20231;-79
2021/04/11 06:03:50;;;;;;;4.40;1.10;;;4.20;99.90;;;;;;4988123;28;20199;-80
2021/04/11 06:06:19;;;;;;;8.70;1.70;;;4.30;99.90;;;;;;5002338;28;20298;-79
2021/04/11 06:08:54;;;;;;;6.60;1.30;;;4.30;99.90;;;;;;5001304;28;20208;-80
2021/04/11 06:11:25;;;;;;;6.37;1.10;;;4.40;99.90;;;;;;5003577;28;20195;-78
2021/04/11 06:13:57;;;;;;;3.17;1.20;;;4.40;99.90;;;;;;5006495;28;20215;-80
2021/04/11 06:16:27;;;;;;;5.50;1.17;;;4.50;99.90;;;;;;4999989;28;20232;-79
2021/04/11 06:18:56;;;;;;;4.67;1.37;;;4.60;99.90;;;;;;4987813;28;20195;-79
2021/04/11 06:21:33;;;;;;;6.80;1.13;;;4.70;99.90;;;;;;4987818;28;20239;-81
2021/04/11 06:24:11;;;;;;;6.37;1.23;;;4.70;99.90;;;;;;4987088;28;20203;-80
2021/04/11 06:26:42;;;;;;;4.83;1.13;;;4.70;99.90;;;;;;4994772;28;20211;-81
2021/04/11 06:29:14;;;;;;;2.83;1.00;;;4.80;99.90;;;;;;5007101;28;20195;-81
2021/04/11 06:31:48;;;;;;;4.67;1.20;;;4.80;99.90;;;;;;5006069;28;20229;-80
2021/04/11 06:34:19;;;;;;;5.53;1.00;;;4.90;99.90;;;;;;5006848;28;20211;-75
2021/04/11 06:36:48;;;;;;;5.67;1.37;;;5.00;99.90;;;;;;5006559;28;20491;-80
2021/04/11 06:39:24;;;;;;;3.87;1.00;;;5.00;99.90;;;;;;5007602;28;20204;-81
2021/04/11 06:42:26;;;;;;;5.80;1.10;;;5.10;99.90;;;;;;5006354;28;20215;-81
2021/04/11 06:45:28;;;;;;;3.27;1.13;;;5.10;99.90;;;;;;4991810;28;20222;-81
2021/04/11 06:48:26;;;;;;;5.33;1.87;;;5.10;99.90;;;;;;5005808;28;20194;-77
2021/04/11 06:51:32;;;;;;;3.70;1.30;;;5.20;99.90;;;;;;4986410;28;20262;-79
2021/04/11 06:54:24;;;;;;;2.87;1.10;;;5.20;99.90;;;;;;4988062;28;20191;-80
2021/04/11 06:57:05;;;;;;;2.73;1.63;;;5.20;99.90;;;;;;5001474;28;20214;-80
2021/04/11 06:59:44;;;;;;;5.33;1.40;;;5.30;99.90;;;;;;5007706;28;20215;-78
2021/04/11 07:02:34;;;;;;;3.57;1.10;;;5.40;99.90;;;;;;5001796;28;20231;-80
2021/04/11 07:05:17;;;;;;;4.07;1.60;;;5.50;99.90;;;;;;5006638;28;20944;-82
2021/04/11 21:24:55;;;;;;;3.63;1.00;;;4.20;99.90;;;;;;5427659;22;20572;-88
2021/04/11 21:27:53;;;;;;;1.80;0.90;;;4.10;99.90;;;;;;5049273;28;20205;-87
2021/04/11 21:30:40;;;;;;;3.60;0.80;;;4.10;99.90;;;;;;5037423;28;20671;-84
2021/04/11 21:33:16;;;;;;;1.50;1.00;;;4.00;99.90;;;;;;5025812;28;20198;-88
2021/04/11 21:35:53;;;;;;;2.40;1.10;;;4.00;99.90;;;;;;5023760;28;20246;-87
2021/04/11 21:38:39;;;;;;;2.60;0.93;;;3.90;99.90;;;;;;5024044;28;20210;-88
2021/04/11 21:41:09;;;;;;;2.43;0.90;;;3.90;99.90;;;;;;5026552;28;20210;-87
2021/04/11 21:43:39;;;;;;;2.10;0.70;;;3.90;99.90;;;;;;5030890;28;20876;-87
2021/04/11 21:46:17;;;;;;;2.40;1.00;;;3.90;99.90;;;;;;5030735;28;20203;-87
2021/04/11 21:49:10;;;;;;;6.23;1.00;;;3.90;99.90;;;;;;5035344;28;20210;-85
2021/04/11 21:52:01;;;;;;;5.57;1.30;;;4.00;99.90;;;;;;5035457;28;20412;-88
2021/04/11 21:54:41;;;;;;;2.10;1.03;;;4.10;99.90;;;;;;5035565;28;20202;-88
2021/04/11 21:57:44;;;;;;;2.67;0.90;;;4.20;99.90;;;;;;5036743;28;20237;-86
2021/04/11 22:00:30;;;;;;;5.00;0.93;;;4.30;99.90;;;;;;5036122;28;20214;-87
2021/04/11 22:03:06;;;;;;;0.63;0.60;;;4.30;99.90;;;;;;5035345;28;20222;-87
2021/04/11 22:06:02;;;;;;;3.47;1.03;;;4.50;99.90;;;;;;5034151;28;21039;-85
2021/04/11 22:08:45;;;;;;;2.40;0.80;;;4.70;99.90;;;;;;5032932;28;20631;-86
2021/04/11 22:11:19;;;;;;;5.23;1.50;;;4.70;99.90;;;;;;5048345;28;20228;-86
2021/04/11 22:13:56;;;;;;;2.60;0.87;;;4.80;99.90;;;;;;5053796;28;20200;-86
2021/04/11 22:16:26;;;;;;;4.23;0.87;;;4.80;99.90;;;;;;5054046;28;20189;-87
2021/04/11 22:18:57;;;;;;;2.37;0.63;;;4.80;99.90;;;;;;5044402;28;20230;-87
2021/04/11 22:21:27;;;;;;;2.20;0.80;;;4.90;99.90;;;;;;5034037;28;20214;-88
2021/04/11 22:23:59;;;;;;;2.23;0.87;;;4.90;99.90;;;;;;5030851;28;20282;-87
2021/04/11 22:26:33;;;;;;;2.63;0.63;;;5.00;99.90;;;;;;5015373;28;20230;-86
2021/04/11 22:29:12;;;;;;;3.67;0.60;;;5.00;99.90;;;;;;5033941;28;20586;-88
2021/04/11 22:31:44;;;;;;;1.33;0.73;;;4.90;99.90;;;;;;5035317;28;20233;-87
2021/04/11 22:34:14;;;;;;;1.47;0.70;;;4.80;99.90;;;;;;5035244;28;20202;-89
2021/04/11 22:36:44;;;;;;;1.97;0.87;;;4.70;99.90;;;;;;5019832;28;20207;-87
2021/04/11 22:39:18;;;;;;;3.27;0.80;;;4.70;99.90;;;;;;5015318;28;20540;-88
2021/04/11 22:41:50;;;;;;;7.03;0.90;;;4.70;99.90;;;;;;5015517;28;20195;-86
2021/04/11 22:44:28;;;;;;;2.43;0.50;;;4.70;99.90;;;;;;5014808;28;20207;-86
2021/04/11 22:47:01;;;;;;;5.37;0.90;;;4.70;99.90;;;;;;5014440;28;20195;-88
2021/04/11 22:49:34;;;;;;;2.83;0.80;;;4.70;99.90;;;;;;5019381;28;20233;-88
2021/04/11 22:52:05;;;;;;;1.70;0.60;;;4.70;99.90;;;;;;5034332;28;20202;-87
2021/04/11 22:54:43;;;;;;;2.13;0.70;;;4.70;99.90;;;;;;5031365;28;20190;-86
2021/04/11 22:57:16;;;;;;;2.13;0.67;;;4.60;99.90;;;;;;5015020;28;20281;-88
2021/04/11 22:59:48;;;;;;;3.13;0.60;;;4.60;99.90;;;;;;5011725;28;20187;-88
2021/04/11 23:02:21;;;;;;;2.83;0.60;;;4.70;99.90;;;;;;5011422;28;20246;-88
2021/04/11 23:05:00;;;;;;;2.83;0.90;;;4.60;99.90;;;;;;5030981;28;20598;-87
2021/04/11 23:07:29;;;;;;;3.73;0.70;;;4.60;99.90;;;;;;5032264;28;20206;-87
2021/04/11 23:10:01;;;;;;;2.43;0.80;;;4.60;99.90;;;;;;5012635;28;20361;-87
2021/04/11 23:12:32;;;;;;;3.20;0.80;;;4.60;99.90;;;;;;5012178;28;20623;-88
2021/04/11 23:15:01;;;;;;;1.70;0.60;;;4.60;99.90;;;;;;5012468;28;20214;-87
2021/04/11 23:17:33;;;;;;;1.77;0.73;;;4.50;99.90;;;;;;5012816;28;20607;-88
2021/04/11 23:20:24;;;;;;;3.50;0.70;;;4.50;99.90;;;;;;5010278;28;20218;-82
2021/04/11 23:23:03;;;;;;;5.27;1.10;;;4.50;99.90;;;;;;5014130;28;20231;-84
2021/04/11 23:25:33;;;;;;;3.77;0.87;;;4.50;99.90;;;;;;5034607;28;20230;-89
2021/04/11 23:28:08;;;;;;;1.93;0.50;;;4.50;99.90;;;;;;5030194;28;20230;-83
2021/04/11 23:30:43;;;;;;;2.53;0.70;;;4.40;99.90;;;;;;5028168;28;20206;-86
2021/04/11 23:33:14;;;;;;;3.33;0.67;;;4.40;99.90;;;;;;5033364;28;20210;-87
2021/04/11 23:35:46;;;;;;;5.80;0.83;;;4.40;99.90;;;;;;5033944;28;20198;-86
2021/04/11 23:38:26;;;;;;;3.77;1.03;;;4.40;99.90;;;;;;5016588;28;20830;-89
2021/04/11 23:41:01;;;;;;;3.50;0.63;;;4.50;99.90;;;;;;5012355;28;20190;-88
2021/04/11 23:43:38;;;;;;;7.27;1.13;;;4.60;99.90;;;;;;5025785;28;20268;-89
2021/04/11 23:46:16;;;;;;;1.60;0.70;;;4.60;99.90;;;;;;5030637;28;20592;-89
2021/04/11 23:48:44;;;;;;;4.63;0.73;;;4.70;99.90;;;;;;5032509;28;20577;-88
2021/04/11 23:51:20;;;;;;;3.33;1.03;;;4.60;99.90;;;;;;5031204;28;20211;-88
2021/04/11 23:53:58;;;;;;;5.57;0.97;;;4.60;99.90;;;;;;5031207;28;20195;-88
2021/04/11 23:56:31;;;;;;;2.43;0.83;;;4.60;99.90;;;;;;5019229;28;20206;-89
2021/04/11 23:59:04;;;;;;;2.93;0.80;;;4.50;99.90;;;;;;5011559;28;20195;-88
